sensor_id;sensor_type;location;lat;lon;timestamp;pressure;altitude;pressure_sealevel;temperature;humidity
36304;BME280;22335;49.800;8.596;2023-04-28T00:05:19;100299.13;;;19.83;37.91
36304;BME280;22335;49.800;8.596;2023-04-28T00:12:04;100297.16;;;19.84;38.03
36304;BME280;22335;49.800;8.596;2023-04-28T00:18:48;100295.06;;;19.80;38.81
36304;BME280;22335;49.800;8.596;2023-04-28T00:25:32;100301.56;;;19.60;39.67
36304;BME280;22335;49.800;8.596;2023-04-28T00:32:15;100275.13;;;19.26;39.79
36304;BME280;22335;49.800;8.596;2023-04-28T00:39:00;100237.56;;;18.67;40.75
36304;BME280;22335;49.800;8.596;2023-04-28T00:45:44;100264.72;;;18.98;40.64
36304;BME280;22335;49.800;8.596;2023-04-28T00:52:28;100195.19;;;18.66;40.28
36304;BME280;22335;49.800;8.596;2023-04-28T00:59:13;100186.00;;;18.75;40.33
36304;BME280;22335;49.800;8.596;2023-04-28T01:05:57;100220.97;;;19.16;40.04
36304;BME280;22335;49.800;8.596;2023-04-28T01:12:41;100210.47;;;19.09;40.24
36304;BME280;22335;49.800;8.596;2023-04-28T01:19:26;100202.03;;;19.06;40.21
36304;BME280;22335;49.800;8.596;2023-04-28T01:26:11;100191.84;;;19.10;40.22
36304;BME280;22335;49.800;8.596;2023-04-28T01:32:55;100196.69;;;19.13;40.50
36304;BME280;22335;49.800;8.596;2023-04-28T01:39:39;100201.66;;;19.20;40.24
36304;BME280;22335;49.800;8.596;2023-04-28T01:46:23;100193.56;;;19.27;40.21
36304;BME280;22335;49.800;8.596;2023-04-28T01:53:07;100188.72;;;19.24;40.11
36304;BME280;22335;49.800;8.596;2023-04-28T01:59:51;100185.97;;;19.24;40.28
36304;BME280;22335;49.800;8.596;2023-04-28T02:06:36;100171.28;;;19.23;41.00
36304;BME280;22335;49.800;8.596;2023-04-28T02:13:19;100189.19;;;19.13;41.04
36304;BME280;22335;49.800;8.596;2023-04-28T02:20:04;100193.16;;;19.00;41.72
36304;BME280;22335;49.800;8.596;2023-04-28T02:26:49;100190.59;;;18.95;42.16
36304;BME280;22335;49.800;8.596;2023-04-28T02:33:34;100192.22;;;18.96;42.35
36304;BME280;22335;49.800;8.596;2023-04-28T02:40:18;100158.16;;;18.71;42.61
36304;BME280;22335;49.800;8.596;2023-04-28T03:04:36;100170.38;;;17.67;45.63
36304;BME280;22335;49.800;8.596;2023-04-28T03:11:20;100174.91;;;17.50;46.01
36304;BME280;22335;49.800;8.596;2023-04-28T03:18:03;100154.69;;;17.71;45.68
36304;BME280;22335;49.800;8.596;2023-04-28T03:24:48;100172.09;;;17.92;45.66
36304;BME280;22335;49.800;8.596;2023-04-28T03:31:31;100153.13;;;18.03;45.50
36304;BME280;22335;49.800;8.596;2023-04-28T03:38:15;100160.50;;;18.11;45.49
36304;BME280;22335;49.800;8.596;2023-04-28T03:45:00;100142.78;;;18.25;45.66
36304;BME280;22335;49.800;8.596;2023-04-28T03:51:44;100143.69;;;18.29;45.51
36304;BME280;22335;49.800;8.596;2023-04-28T03:58:28;100138.63;;;18.31;45.64
36304;BME280;22335;49.800;8.596;2023-04-28T04:05:16;100115.81;;;18.34;45.49
36304;BME280;22335;49.800;8.596;2023-04-28T04:11:59;100107.34;;;18.42;45.20
36304;BME280;22335;49.800;8.596;2023-04-28T04:18:43;100094.91;;;18.49;44.91
36304;BME280;22335;49.800;8.596;2023-04-28T04:25:47;100028.00;;;18.10;45.63
36304;BME280;22335;49.800;8.596;2023-04-28T04:32:31;100081.88;;;18.49;45.93
36304;BME280;22335;49.800;8.596;2023-04-28T04:39:15;100089.59;;;18.43;46.17
36304;BME280;22335;49.800;8.596;2023-04-28T04:46:00;100066.66;;;18.43;45.85
36304;BME280;22335;49.800;8.596;2023-04-28T04:52:45;100075.53;;;18.24;46.32
36304;BME280;22335;49.800;8.596;2023-04-28T04:59:28;100086.94;;;18.10;46.67
36304;BME280;22335;49.800;8.596;2023-04-28T05:06:22;100087.63;;;18.07;46.88
36304;BME280;22335;49.800;8.596;2023-04-28T05:13:06;100072.28;;;17.64;47.26
36304;BME280;22335;49.800;8.596;2023-04-28T05:19:50;100059.69;;;17.55;47.96
36304;BME280;22335;49.800;8.596;2023-04-28T05:26:35;100096.13;;;17.90;47.82
36304;BME280;22335;49.800;8.596;2023-04-28T05:33:22;100099.38;;;18.04;47.38
36304;BME280;22335;49.800;8.596;2023-04-28T05:40:07;100092.25;;;18.15;47.40
36304;BME280;22335;49.800;8.596;2023-04-28T05:46:53;100099.41;;;18.29;47.46
36304;BME280;22335;49.800;8.596;2023-04-28T05:53:39;100112.66;;;18.35;47.48
36304;BME280;22335;49.800;8.596;2023-04-28T06:00:23;100116.25;;;18.36;47.70
36304;BME280;22335;49.800;8.596;2023-04-28T06:07:10;100106.41;;;18.02;47.91
36304;BME280;22335;49.800;8.596;2023-04-28T06:13:54;100124.91;;;18.22;48.22
36304;BME280;22335;49.800;8.596;2023-04-28T06:20:38;100089.34;;;18.00;49.06
36304;BME280;22335;49.800;8.596;2023-04-28T06:27:24;100116.81;;;18.17;49.46
36304;BME280;22335;49.800;8.596;2023-04-28T06:34:09;100139.78;;;18.30;49.70
36304;BME280;22335;49.800;8.596;2023-04-28T06:40:53;100135.88;;;18.31;49.93
36304;BME280;22335;49.800;8.596;2023-04-28T06:47:38;100134.38;;;18.21;50.57
36304;BME280;22335;49.800;8.596;2023-04-28T06:54:23;100123.81;;;18.02;51.24
36304;BME280;22335;49.800;8.596;2023-04-28T07:01:06;100067.09;;;17.29;52.31
36304;BME280;22335;49.800;8.596;2023-04-28T07:07:51;100115.94;;;17.25;53.66
36304;BME280;22335;49.800;8.596;2023-04-28T07:14:34;100062.88;;;16.90;54.09
36304;BME280;22335;49.800;8.596;2023-04-28T07:21:18;100102.41;;;17.45;54.21
36304;BME280;22335;49.800;8.596;2023-04-28T07:28:04;100091.03;;;17.59;54.66
36304;BME280;22335;49.800;8.596;2023-04-28T07:34:47;100099.75;;;17.69;54.83
36304;BME280;22335;49.800;8.596;2023-04-28T07:41:35;100013.13;;;17.11;55.44
36304;BME280;22335;49.800;8.596;2023-04-28T07:48:20;100074.00;;;17.57;56.06
36304;BME280;22335;49.800;8.596;2023-04-28T07:55:04;100096.53;;;17.46;56.78
36304;BME280;22335;49.800;8.596;2023-04-28T08:01:48;100092.66;;;17.26;57.70
36304;BME280;22335;49.800;8.596;2023-04-28T08:08:33;100064.91;;;16.81;59.06
36304;BME280;22335;49.800;8.596;2023-04-28T08:15:16;100101.47;;;16.78;59.66
36304;BME280;22335;49.800;8.596;2023-04-28T08:22:00;100099.44;;;16.66;60.79
36304;BME280;22335;49.800;8.596;2023-04-28T08:28:47;100096.19;;;16.64;61.27
36304;BME280;22335;49.800;8.596;2023-04-28T08:35:31;100099.22;;;16.71;61.61
36304;BME280;22335;49.800;8.596;2023-04-28T08:42:15;100084.59;;;16.41;62.34
36304;BME280;22335;49.800;8.596;2023-04-28T08:49:03;100069.47;;;16.47;63.24
36304;BME280;22335;49.800;8.596;2023-04-28T08:55:50;100073.47;;;16.58;63.59
36304;BME280;22335;49.800;8.596;2023-04-28T09:02:37;100091.41;;;16.73;63.76
36304;BME280;22335;49.800;8.596;2023-04-28T09:09:25;100126.72;;;16.97;64.31
36304;BME280;22335;49.800;8.596;2023-04-28T09:16:11;100123.53;;;17.08;64.28
36304;BME280;22335;49.800;8.596;2023-04-28T09:22:55;100114.72;;;17.14;64.87
36304;BME280;22335;49.800;8.596;2023-04-28T09:29:55;100067.47;;;16.86;65.22
36304;BME280;22335;49.800;8.596;2023-04-28T09:36:38;100118.22;;;17.23;65.58
36304;BME280;22335;49.800;8.596;2023-04-28T09:43:23;100126.63;;;17.27;65.65
36304;BME280;22335;49.800;8.596;2023-04-28T09:50:10;100118.53;;;17.43;66.21
36304;BME280;22335;49.800;8.596;2023-04-28T09:56:57;100125.13;;;17.50;65.95
36304;BME280;22335;49.800;8.596;2023-04-28T10:03:41;100117.28;;;17.52;66.13
36304;BME280;22335;49.800;8.596;2023-04-28T10:10:27;100113.03;;;17.55;66.47
36304;BME280;22335;49.800;8.596;2023-04-28T10:17:12;100079.22;;;17.37;66.75
36304;BME280;22335;49.800;8.596;2023-04-28T10:24:03;100109.28;;;17.60;67.38
36304;BME280;22335;49.800;8.596;2023-04-28T10:31:09;100112.97;;;17.64;67.33
36304;BME280;22335;49.800;8.596;2023-04-28T10:38:02;100048.44;;;17.26;67.51
36304;BME280;22335;49.800;8.596;2023-04-28T10:44:47;100109.19;;;17.68;67.82
36304;BME280;22335;49.800;8.596;2023-04-28T10:51:32;100096.56;;;17.80;68.42
36304;BME280;22335;49.800;8.596;2023-04-28T10:58:31;100086.41;;;17.84;68.18
36304;BME280;22335;49.800;8.596;2023-04-28T11:05:18;100100.28;;;18.08;67.96
36304;BME280;22335;49.800;8.596;2023-04-28T11:12:05;100069.97;;;17.87;68.05
36304;BME280;22335;49.800;8.596;2023-04-28T11:18:56;100079.53;;;18.02;67.91
36304;BME280;22335;49.800;8.596;2023-04-28T11:25:53;100097.78;;;18.15;68.06
36304;BME280;22335;49.800;8.596;2023-04-28T11:32:38;100105.31;;;18.27;67.76
36304;BME280;22335;49.800;8.596;2023-04-28T11:39:25;100104.25;;;18.19;68.28
36304;BME280;22335;49.800;8.596;2023-04-28T11:46:15;100055.72;;;17.77;68.50
36304;BME280;22335;49.800;8.596;2023-04-28T11:53:01;100089.25;;;18.20;68.77
36304;BME280;22335;49.800;8.596;2023-04-28T11:59:45;100101.72;;;18.39;68.56
36304;BME280;22335;49.800;8.596;2023-04-28T12:06:29;100073.91;;;18.48;68.37
36304;BME280;22335;49.800;8.596;2023-04-28T12:13:17;100085.47;;;18.74;68.41
36304;BME280;22335;49.800;8.596;2023-04-28T12:20:02;100081.63;;;18.79;68.94
36304;BME280;22335;49.800;8.596;2023-04-28T12:26:46;100087.25;;;18.70;67.12
36304;BME280;22335;49.800;8.596;2023-04-28T12:33:31;100099.41;;;18.65;68.88
36304;BME280;22335;49.800;8.596;2023-04-28T12:40:18;100089.13;;;18.54;70.41
36304;BME280;22335;49.800;8.596;2023-04-28T12:47:03;100084.75;;;18.65;72.04
36304;BME280;22335;49.800;8.596;2023-04-28T12:53:50;100078.41;;;18.77;72.79
36304;BME280;22335;49.800;8.596;2023-04-28T13:00:33;100080.25;;;18.73;73.11
36304;BME280;22335;49.800;8.596;2023-04-28T13:07:18;100081.53;;;18.75;73.20
36304;BME280;22335;49.800;8.596;2023-04-28T13:14:03;100036.38;;;18.62;74.21
36304;BME280;22335;49.800;8.596;2023-04-28T13:20:47;100051.16;;;18.79;73.75
36304;BME280;22335;49.800;8.596;2023-04-28T13:27:30;100077.88;;;19.11;74.34
36304;BME280;22335;49.800;8.596;2023-04-28T13:34:16;100053.81;;;19.16;74.45
36304;BME280;22335;49.800;8.596;2023-04-28T13:41:00;100056.78;;;19.23;73.76
36304;BME280;22335;49.800;8.596;2023-04-28T13:47:43;100034.50;;;19.19;74.23
36304;BME280;22335;49.800;8.596;2023-04-28T13:54:28;100035.06;;;19.25;74.52
36304;BME280;22335;49.800;8.596;2023-04-28T14:01:12;100040.84;;;19.20;74.40
36304;BME280;22335;49.800;8.596;2023-04-28T14:07:55;100043.66;;;19.07;74.76
36304;BME280;22335;49.800;8.596;2023-04-28T14:14:40;99988.03;;;19.00;75.46
36304;BME280;22335;49.800;8.596;2023-04-28T14:21:24;99983.06;;;19.06;76.52
36304;BME280;22335;49.800;8.596;2023-04-28T14:28:07;99988.78;;;19.13;77.31
36304;BME280;22335;49.800;8.596;2023-04-28T14:34:52;99985.84;;;19.22;77.40
36304;BME280;22335;49.800;8.596;2023-04-28T14:41:36;99992.94;;;19.35;77.88
36304;BME280;22335;49.800;8.596;2023-04-28T14:48:19;99979.16;;;19.39;78.09
36304;BME280;22335;49.800;8.596;2023-04-28T14:55:05;99968.28;;;19.46;78.13
36304;BME280;22335;49.800;8.596;2023-04-28T15:01:49;99983.75;;;19.63;78.01
36304;BME280;22335;49.800;8.596;2023-04-28T15:08:32;99985.44;;;19.79;77.02
36304;BME280;22335;49.800;8.596;2023-04-28T15:15:18;99974.75;;;19.81;75.34
36304;BME280;22335;49.800;8.596;2023-04-28T15:22:01;99972.19;;;19.73;75.58
36304;BME280;22335;49.800;8.596;2023-04-28T15:28:45;99971.00;;;19.74;75.36
36304;BME280;22335;49.800;8.596;2023-04-28T15:35:31;99937.31;;;19.59;75.05
36304;BME280;22335;49.800;8.596;2023-04-28T15:42:15;99979.88;;;19.79;74.21
36304;BME280;22335;49.800;8.596;2023-04-28T15:48:58;99913.97;;;19.61;73.87
36304;BME280;22335;49.800;8.596;2023-04-28T15:55:44;99946.00;;;20.06;73.38
36304;BME280;22335;49.800;8.596;2023-04-28T16:02:27;99938.38;;;20.02;73.53
36304;BME280;22335;49.800;8.596;2023-04-28T16:09:10;99933.69;;;20.22;73.14
36304;BME280;22335;49.800;8.596;2023-04-28T16:15:55;99930.25;;;20.29;72.49
36304;BME280;22335;49.800;8.596;2023-04-28T16:22:40;99920.56;;;20.39;72.90
36304;BME280;22335;49.800;8.596;2023-04-28T16:29:23;99919.75;;;20.38;72.06
36304;BME280;22335;49.800;8.596;2023-04-28T16:36:08;99889.94;;;20.35;72.17
36304;BME280;22335;49.800;8.596;2023-04-28T16:42:51;99919.81;;;20.42;72.38
36304;BME280;22335;49.800;8.596;2023-04-28T16:49:35;99954.16;;;20.69;71.08
36304;BME280;22335;49.800;8.596;2023-04-28T16:56:20;99900.38;;;21.00;70.88
36304;BME280;22335;49.800;8.596;2023-04-28T17:03:05;99907.34;;;20.90;69.57
36304;BME280;22335;49.800;8.596;2023-04-28T17:09:48;99943.72;;;21.24;68.79
36304;BME280;22335;49.800;8.596;2023-04-28T17:16:33;99924.66;;;20.84;68.56
36304;BME280;22335;49.800;8.596;2023-04-28T17:23:17;99979.16;;;21.08;69.40
36304;BME280;22335;49.800;8.596;2023-04-28T17:30:00;99945.25;;;20.79;67.48
36304;BME280;22335;49.800;8.596;2023-04-28T17:36:46;99935.50;;;20.15;67.43
36304;BME280;22335;49.800;8.596;2023-04-28T17:43:29;99924.47;;;19.67;67.48
36304;BME280;22335;49.800;8.596;2023-04-28T17:50:14;99931.84;;;19.47;66.99
36304;BME280;22335;49.800;8.596;2023-04-28T17:56:59;99930.59;;;19.45;66.83
36304;BME280;22335;49.800;8.596;2023-04-28T18:03:42;99964.56;;;19.70;65.53
36304;BME280;22335;49.800;8.596;2023-04-28T18:10:26;99943.88;;;19.83;65.01
36304;BME280;22335;49.800;8.596;2023-04-28T18:17:11;99944.91;;;19.94;64.95
36304;BME280;22335;49.800;8.596;2023-04-28T18:23:54;99959.81;;;19.86;64.95
36304;BME280;22335;49.800;8.596;2023-04-28T18:30:37;99964.75;;;19.77;64.79
36304;BME280;22335;49.800;8.596;2023-04-28T18:37:21;99978.22;;;19.63;65.21
36304;BME280;22335;49.800;8.596;2023-04-28T18:44:04;99992.56;;;19.65;65.17
36304;BME280;22335;49.800;8.596;2023-04-28T18:50:48;100004.31;;;19.74;65.13
36304;BME280;22335;49.800;8.596;2023-04-28T18:57:33;99981.84;;;19.79;64.90
36304;BME280;22335;49.800;8.596;2023-04-28T19:04:17;99988.84;;;19.73;65.13
36304;BME280;22335;49.800;8.596;2023-04-28T19:11:03;100013.25;;;19.67;65.14
36304;BME280;22335;49.800;8.596;2023-04-28T19:17:48;100022.72;;;19.66;64.92
36304;BME280;22335;49.800;8.596;2023-04-28T19:24:32;100040.13;;;19.95;64.52
36304;BME280;22335;49.800;8.596;2023-04-28T19:31:16;100052.03;;;20.11;64.13
36304;BME280;22335;49.800;8.596;2023-04-28T19:38:01;100041.16;;;20.22;64.09
36304;BME280;22335;49.800;8.596;2023-04-28T19:44:45;100044.28;;;20.36;63.80
36304;BME280;22335;49.800;8.596;2023-04-28T19:51:29;100048.50;;;20.46;63.47
36304;BME280;22335;49.800;8.596;2023-04-28T19:58:14;100063.19;;;20.46;63.04
36304;BME280;22335;49.800;8.596;2023-04-28T20:04:59;100022.56;;;20.22;62.97
36304;BME280;22335;49.800;8.596;2023-04-28T20:11:42;100080.41;;;20.52;62.72
36304;BME280;22335;49.800;8.596;2023-04-28T20:18:27;100069.94;;;20.30;62.92
36304;BME280;22335;49.800;8.596;2023-04-28T20:25:12;100079.25;;;20.06;63.40
36304;BME280;22335;49.800;8.596;2023-04-28T20:31:56;100072.91;;;20.05;63.40
36304;BME280;22335;49.800;8.596;2023-04-28T20:38:41;100084.16;;;20.12;62.58
36304;BME280;22335;49.800;8.596;2023-04-28T20:45:24;100101.91;;;20.23;62.24
36304;BME280;22335;49.800;8.596;2023-04-28T20:52:08;100101.75;;;20.32;61.98
36304;BME280;22335;49.800;8.596;2023-04-28T20:58:53;100091.53;;;20.20;61.97
36304;BME280;22335;49.800;8.596;2023-04-28T21:05:36;100045.03;;;19.70;62.23
36304;BME280;22335;49.800;8.596;2023-04-28T21:12:20;100110.97;;;20.04;62.32
36304;BME280;22335;49.800;8.596;2023-04-28T21:19:04;100121.06;;;19.97;62.39
36304;BME280;22335;49.800;8.596;2023-04-28T21:25:48;100131.34;;;19.80;62.71
36304;BME280;22335;49.800;8.596;2023-04-28T21:32:33;100122.31;;;19.84;62.53
36304;BME280;22335;49.800;8.596;2023-04-28T21:39:17;100121.25;;;19.88;62.52
36304;BME280;22335;49.800;8.596;2023-04-28T21:46:02;100139.13;;;19.91;62.43
36304;BME280;22335;49.800;8.596;2023-04-28T21:52:45;100134.59;;;19.98;61.90
36304;BME280;22335;49.800;8.596;2023-04-28T21:59:30;100118.75;;;19.99;62.05
36304;BME280;22335;49.800;8.596;2023-04-28T22:06:14;100125.81;;;19.96;62.01
36304;BME280;22335;49.800;8.596;2023-04-28T22:12:57;100131.53;;;20.03;61.32
36304;BME280;22335;49.800;8.596;2023-04-28T22:19:42;100142.31;;;20.05;61.06
36304;BME280;22335;49.800;8.596;2023-04-28T22:26:26;100144.38;;;20.08;60.52
36304;BME280;22335;49.800;8.596;2023-04-28T22:33:09;100148.31;;;20.07;60.49
36304;BME280;22335;49.800;8.596;2023-04-28T22:39:54;100145.41;;;20.03;60.34
36304;BME280;22335;49.800;8.596;2023-04-28T22:46:38;100151.53;;;20.09;59.92
36304;BME280;22335;49.800;8.596;2023-04-28T22:53:21;100150.38;;;20.10;59.97
36304;BME280;22335;49.800;8.596;2023-04-28T23:00:07;100139.34;;;19.98;59.98
36304;BME280;22335;49.800;8.596;2023-04-28T23:06:52;100144.78;;;19.94;59.78
36304;BME280;22335;49.800;8.596;2023-04-28T23:13:36;100141.19;;;19.94;59.78
36304;BME280;22335;49.800;8.596;2023-04-28T23:20:21;100138.25;;;19.87;60.02
36304;BME280;22335;49.800;8.596;2023-04-28T23:27:04;100145.31;;;19.84;59.69
36304;BME280;22335;49.800;8.596;2023-04-28T23:33:48;100150.56;;;19.73;60.01
36304;BME280;22335;49.800;8.596;2023-04-28T23:40:33;100149.09;;;19.64;59.89
36304;BME280;22335;49.800;8.596;2023-04-28T23:47:17;100126.06;;;19.35;59.81
36304;BME280;22335;49.800;8.596;2023-04-28T23:54:00;100158.19;;;19.36;59.80
